Time,TemperatureF,DewpointF,PressureIn,WindDirection,WindDirectionDegrees,WindSpeedMPH,WindSpeedGustMPH,Humidity,HourlyPrecipIn,Conditions,Clouds,dailyrainin,SoftwareType,DateUTC
2013-02-04 00:27:00,23.5,10.2,30.09,South,180,1.1,8.1,56,0.00,,,0.00,VWS V14.01,2013-02-04 05:27:00,
2013-02-04 00:32:00,23.4,10.8,30.09,South,180,2.2,3.8,58,0.00,,,0.00,VWS V14.01,2013-02-04 05:32:00,
2013-02-04 00:37:00,23.2,10.2,30.09,SSW,202,2.2,5.4,57,0.00,,,0.00,VWS V14.01,2013-02-04 05:37:00,
2013-02-04 00:42:00,23.0,10.1,30.09,SSE,158,3.6,5.4,57,0.00,,,0.00,VWS V14.01,2013-02-04 05:42:00,
2013-02-04 00:47:00,23.0,10.4,30.09,SW,225,1.3,3.4,58,0.00,,,0.00,VWS V14.01,2013-02-04 05:47:00,
2013-02-04 00:52:00,22.5,9.9,30.09,North,0,2.7,2.7,58,0.00,,,0.00,VWS V14.01,2013-02-04 05:52:00,
2013-02-04 00:57:00,22.6,10.1,30.09,South,180,2.9,5.6,58,0.00,,,0.00,VWS V14.01,2013-02-04 05:57:00,
2013-02-04 01:02:00,22.6,10.1,30.09,ENE,68,2.7,6.3,58,0.00,,,0.00,VWS V14.01,2013-02-04 06:02:00,
2013-02-04 01:07:00,22.3,9.8,30.09,SE,135,1.6,2.9,58,0.00,,,0.00,VWS V14.01,2013-02-04 06:07:00,
2013-02-04 01:12:00,22.3,10.1,30.09,SW,225,3.6,7.6,59,0.00,,,0.00,VWS V14.01,2013-02-04 06:12:00,
2013-02-04 01:17:00,22.3,10.1,30.09,South,180,1.3,2.7,59,0.00,,,0.00,VWS V14.01,2013-02-04 06:17:00,
2013-02-04 01:22:00,22.3,9.8,30.09,South,180,3.6,5.6,58,0.00,,,0.00,VWS V14.01,2013-02-04 06:22:00,
2013-02-04 01:27:00,22.1,9.6,30.09,WSW,248,0.0,5.4,58,0.00,,,0.00,VWS V14.01,2013-02-04 06:27:00,
2013-02-04 01:32:00,21.9,9.4,30.09,NE,45,2.0,4.3,58,0.00,,,0.00,VWS V14.01,2013-02-04 06:32:00,
2013-02-04 01:37:00,21.9,9.8,30.09,WSW,248,1.6,4.7,59,0.00,,,0.00,VWS V14.01,2013-02-04 06:37:00,
2013-02-04 01:42:00,22.1,10.0,30.09,SSW,202,3.1,7.4,59,0.00,,,0.00,VWS V14.01,2013-02-04 06:42:00,
2013-02-04 01:47:00,21.9,9.8,30.09,SSW,202,1.1,2.9,59,0.00,,,0.00,VWS V14.01,2013-02-04 06:47:00,
2013-02-04 01:52:00,21.7,9.6,30.09,South,180,2.2,3.4,59,0.00,,,0.00,VWS V14.01,2013-02-04 06:52:00,
2013-02-04 01:57:00,21.4,9.3,30.09,WNW,292,0.0,2.7,59,0.00,,,0.00,VWS V14.01,2013-02-04 06:57:00,
2013-02-04 02:02:00,21.0,9.3,30.09,South,180,3.1,4.3,60,0.00,,,0.00,VWS V14.01,2013-02-04 07:02:00,
2013-02-04 02:07:00,21.6,10.2,30.09,South,180,2.7,4.7,61,0.00,,,0.00,VWS V14.01,2013-02-04 07:07:00,
2013-02-04 02:11:00,21.4,9.7,30.09,SSW,202,2.5,2.9,60,0.00,,,0.00,VWS V14.01,2013-02-04 07:11:00,
2013-02-04 02:16:00,21.2,9.9,30.09,SW,225,1.3,2.0,61,0.00,,,0.00,VWS V14.01,2013-02-04 07:16:00,
2013-02-04 02:21:00,20.3,9.0,30.12,West,270,1.1,2.0,61,0.00,,,0.00,VWS V14.01,2013-02-04 07:21:00,
2013-02-04 02:26:00,20.1,8.8,30.12,NW,315,1.1,1.1,61,0.00,,,0.00,VWS V14.01,2013-02-04 07:26:00,
2013-02-04 02:31:00,19.9,8.7,30.12,West,270,2.0,2.7,61,0.00,,,0.00,VWS V14.01,2013-02-04 07:31:00,
2013-02-04 02:36:00,19.6,8.7,30.09,NW,315,1.3,2.0,62,0.00,,,0.00,VWS V14.01,2013-02-04 07:36:00,
2013-02-04 02:41:00,20.1,10.3,30.09,South,180,2.9,8.5,65,0.00,,,0.00,VWS V14.01,2013-02-04 07:41:00,
2013-02-04 02:46:00,20.1,10.3,30.09,NE,45,1.3,2.9,65,0.00,,,0.00,VWS V14.01,2013-02-04 07:46:00,
2013-02-04 02:51:00,19.4,9.6,30.09,NNW,338,1.6,2.7,65,0.00,,,0.00,VWS V14.01,2013-02-04 07:51:00,
2013-02-04 02:56:00,19.8,10.3,30.09,SE,135,3.4,3.8,66,0.00,,,0.00,VWS V14.01,2013-02-04 07:56:00,
2013-02-04 03:01:00,19.8,10.3,30.09,NE,45,1.6,2.0,66,0.00,,OVC023,0.00,VWS V14.01,2013-02-04 08:01:00,
2013-02-04 03:06:00,19.4,9.9,30.09,SSW,202,0.0,1.1,66,0.00,,OVC023,0.00,VWS V14.01,2013-02-04 08:06:00,
2013-02-04 03:11:00,19.0,9.6,30.09,NNE,22,0.9,2.2,66,0.00,,OVC023,0.00,VWS V14.01,2013-02-04 08:11:00,
2013-02-04 03:16:00,18.1,8.7,30.09,NW,315,1.1,2.9,66,0.00,,OVC023,0.00,VWS V14.01,2013-02-04 08:16:00,
2013-02-04 03:21:00,19.2,10.7,30.09,West,270,1.6,2.9,69,0.00,,OVC023,0.00,VWS V14.01,2013-02-04 08:21:00,
2013-02-04 03:26:00,18.5,10.0,30.09,SSE,158,0.9,2.9,69,0.00,,OVC023,0.00,VWS V14.01,2013-02-04 08:26:00,
2013-02-04 03:31:00,19.8,11.6,30.09,SW,225,1.6,3.1,70,0.00,,OVC023,0.00,VWS V14.01,2013-02-04 08:31:00,
2013-02-04 03:36:00,19.8,11.6,30.09,South,180,0.0,2.7,70,0.00,,OVC023,0.00,VWS V14.01,2013-02-04 08:36:00,
2013-02-04 03:41:00,19.6,11.1,30.09,SSW,202,2.9,2.9,69,0.00,,OVC023,0.00,VWS V14.01,2013-02-04 08:41:00,
2013-02-04 03:46:00,19.9,11.8,30.09,NNW,338,2.2,3.8,70,0.00,,OVC023,0.00,VWS V14.01,2013-02-04 08:46:00,
2013-02-04 03:51:00,20.1,11.6,30.09,East,90,2.9,2.9,69,0.00,,OVC023,0.00,VWS V14.01,2013-02-04 08:51:00,
2013-02-04 03:56:00,20.3,11.4,30.09,SE,135,2.5,2.5,68,0.00,,OVC023,0.00,VWS V14.01,2013-02-04 08:56:00,
2013-02-04 04:01:00,20.3,11.1,30.09,West,270,1.6,4.0,67,0.00,,OVC023,0.00,VWS V14.01,2013-02-04 09:01:00,
2013-02-04 04:06:00,18.5,8.7,30.06,East,90,0.0,0.9,65,0.00,,OVC023,0.00,VWS V14.01,2013-02-04 09:06:00,
2013-02-04 04:11:00,17.1,7.3,30.06,West,270,0.0,1.3,65,0.00,,OVC023,0.00,VWS V14.01,2013-02-04 09:11:00,
2013-02-04 04:16:00,16.2,6.5,30.06,NE,45,0.9,0.9,65,0.00,,OVC023,0.00,VWS V14.01,2013-02-04 09:16:00,
2013-02-04 04:21:00,15.6,6.9,30.06,NNW,338,0.0,1.3,68,0.00,,OVC023,0.00,VWS V14.01,2013-02-04 09:21:00,
2013-02-04 04:26:00,15.4,7.1,30.06,East,90,2.7,2.9,69,0.00,,OVC023,0.00,VWS V14.01,2013-02-04 09:26:00,
2013-02-04 04:31:00,15.3,7.2,30.06,NNW,338,0.0,1.3,70,0.00,,OVC023,0.00,VWS V14.01,2013-02-04 09:31:00,
2013-02-04 04:36:00,15.3,7.6,30.06,NNW,338,0.0,0.0,71,0.00,,OVC023,0.00,VWS V14.01,2013-02-04 09:36:00,
2013-02-04 04:41:00,15.1,8.3,30.06,South,180,0.0,2.7,74,0.00,,OVC023,0.00,VWS V14.01,2013-02-04 09:41:00,
2013-02-04 04:46:00,14.5,7.8,30.06,WNW,292,0.0,2.5,74,0.00,,OVC023,0.00,VWS V14.01,2013-02-04 09:46:00,
2013-02-04 04:51:00,13.8,7.1,30.06,NNE,22,2.5,2.5,74,0.00,,OVC023,0.00,VWS V14.01,2013-02-04 09:51:00,
2013-02-04 04:56:00,13.5,6.7,30.06,ESE,112,0.0,2.0,74,0.00,,OVC023,0.00,VWS V14.01,2013-02-04 09:56:00,
2013-02-04 05:01:00,13.3,6.6,30.06,SSW,202,1.6,2.7,74,0.00,,OVC021,0.00,VWS V14.01,2013-02-04 10:01:00,
2013-02-04 05:06:00,12.7,6.0,30.06,NNW,338,0.0,2.2,74,0.00,,OVC021,0.00,VWS V14.01,2013-02-04 10:06:00,
2013-02-04 05:11:00,12.0,5.3,30.06,NW,315,0.0,0.0,74,0.00,,OVC021,0.00,VWS V14.01,2013-02-04 10:11:00,
2013-02-04 05:16:00,11.7,5.0,30.06,NW,315,0.0,0.0,74,0.00,,OVC021,0.00,VWS V14.01,2013-02-04 10:16:00,
2013-02-04 05:21:00,11.5,4.8,30.09,NE,45,0.0,1.1,74,0.00,,OVC021,0.00,VWS V14.01,2013-02-04 10:21:00,
2013-02-04 05:26:00,11.1,4.5,30.09,West,270,0.0,0.0,74,0.00,,OVC021,0.00,VWS V14.01,2013-02-04 10:26:00,
2013-02-04 05:31:00,11.1,4.5,30.09,SW,225,0.0,0.0,74,0.00,,OVC021,0.00,VWS V14.01,2013-02-04 10:31:00,
2013-02-04 05:36:00,10.9,4.3,30.09,East,90,0.0,0.0,74,0.00,,OVC021,0.00,VWS V14.01,2013-02-04 10:36:00,
2013-02-04 05:41:00,10.4,3.8,30.09,NW,315,2.0,2.0,74,0.00,,OVC021,0.00,VWS V14.01,2013-02-04 10:41:00,
2013-02-04 05:46:00,10.2,3.6,30.09,West,270,0.0,0.0,74,0.00,,OVC021,0.00,VWS V14.01,2013-02-04 10:46:00,
2013-02-04 05:51:00,10.4,3.8,30.09,East,90,0.0,0.0,74,0.00,,OVC021,0.00,VWS V14.01,2013-02-04 10:51:00,
2013-02-04 05:56:00,10.0,3.4,30.09,ESE,112,0.0,0.0,74,0.00,,OVC021,0.00,VWS V14.01,2013-02-04 10:56:00,
2013-02-04 06:01:00,10.2,3.6,30.09,ESE,112,2.2,2.7,74,0.00,,OVC019,0.00,VWS V14.01,2013-02-04 11:01:00,
2013-02-04 06:06:00,10.9,4.3,30.09,ENE,68,0.9,2.7,74,0.00,,OVC019,0.00,VWS V14.01,2013-02-04 11:06:00,
2013-02-04 06:11:00,10.2,3.6,30.09,ENE,68,0.0,0.0,74,0.00,,OVC019,0.00,VWS V14.01,2013-02-04 11:11:00,
2013-02-04 06:16:00,9.7,3.1,30.09,ENE,68,0.0,0.0,74,0.00,,OVC019,0.00,VWS V14.01,2013-02-04 11:16:00,
2013-02-04 06:21:00,9.7,3.1,30.09,SE,135,0.0,0.0,74,0.00,,OVC019,0.00,VWS V14.01,2013-02-04 11:21:00,
2013-02-04 06:26:00,10.4,3.8,30.09,ESE,112,2.5,2.7,74,0.00,,OVC019,0.00,VWS V14.01,2013-02-04 11:26:00,
2013-02-04 06:31:00,10.4,3.8,30.09,East,90,0.0,0.0,74,0.00,,OVC019,0.00,VWS V14.01,2013-02-04 11:31:00,
2013-02-04 06:36:00,10.0,3.4,30.09,NNE,22,0.0,0.0,74,0.00,,OVC019,0.00,VWS V14.01,2013-02-04 11:36:00,
2013-02-04 06:41:00,10.0,3.4,30.09,SE,135,1.3,1.3,74,0.00,,OVC019,0.00,VWS V14.01,2013-02-04 11:41:00,
2013-02-04 06:46:00,10.8,4.1,30.09,East,90,2.7,2.7,74,0.00,,OVC019,16.76,VWS V14.01,2013-02-04 11:46:00,
2013-02-04 06:51:00,10.6,3.9,30.09,NE,45,1.3,1.3,74,0.00,,OVC019,16.76,VWS V14.01,2013-02-04 11:51:00,
2013-02-04 06:56:00,10.4,3.8,30.09,East,90,0.0,0.0,74,0.00,,OVC019,16.76,VWS V14.01,2013-02-04 11:56:00,
2013-02-04 07:01:00,10.4,3.8,30.09,South,180,1.1,1.3,74,0.00,,OVC019,16.76,VWS V14.01,2013-02-04 12:01:00,
2013-02-04 07:06:00,10.4,3.8,30.09,ESE,112,0.0,2.0,74,0.00,,OVC019,16.76,VWS V14.01,2013-02-04 12:06:00,
2013-02-04 07:11:00,10.2,3.6,30.09,ESE,112,0.0,0.0,74,0.00,,OVC019,16.76,VWS V14.01,2013-02-04 12:11:00,
2013-02-04 07:16:00,10.0,3.4,30.09,WNW,292,0.0,1.1,74,0.00,,OVC019,16.76,VWS V14.01,2013-02-04 12:16:00,
2013-02-04 07:21:00,10.2,3.6,30.09,SW,225,0.0,1.3,74,0.00,,OVC019,16.76,VWS V14.01,2013-02-04 12:21:00,
2013-02-04 07:26:00,10.4,3.8,30.09,ENE,68,2.5,2.5,74,0.00,,OVC019,16.76,VWS V14.01,2013-02-04 12:26:00,
2013-02-04 07:31:00,10.9,4.3,30.09,East,90,2.2,3.4,74,0.00,,OVC017,16.76,VWS V14.01,2013-02-04 12:31:00,
2013-02-04 07:36:00,11.3,4.6,30.09,East,90,3.8,4.0,74,0.00,,OVC017,16.76,VWS V14.01,2013-02-04 12:36:00,
2013-02-04 07:41:00,11.1,4.5,30.09,ENE,68,2.9,2.9,74,0.00,,OVC017,16.76,VWS V14.01,2013-02-04 12:41:00,
2013-02-04 07:46:00,11.1,4.5,30.09,East,90,2.5,2.5,74,0.00,,OVC017,16.76,VWS V14.01,2013-02-04 12:46:00,
2013-02-04 07:51:00,11.5,4.8,30.09,ENE,68,0.0,2.7,74,0.00,,OVC017,16.76,VWS V14.01,2013-02-04 12:51:00,
2013-02-04 07:56:00,11.7,5.0,30.09,SSE,158,0.0,0.0,74,0.00,,OVC017,16.76,VWS V14.01,2013-02-04 12:56:00,
2013-02-04 08:01:00,11.7,5.0,30.09,SSE,158,0.0,0.0,74,0.00,,OVC017,16.76,VWS V14.01,2013-02-04 13:01:00,
2013-02-04 08:06:00,12.0,5.3,30.06,SSE,158,0.0,0.0,74,0.00,,OVC017,16.76,VWS V14.01,2013-02-04 13:06:00,
2013-02-04 08:11:00,12.9,6.2,30.06,SSE,158,0.0,0.0,74,0.00,,OVC017,16.76,VWS V14.01,2013-02-04 13:11:00,
2013-02-04 08:16:00,13.5,6.7,30.06,SSE,158,0.0,0.0,74,0.00,,OVC017,16.76,VWS V14.01,2013-02-04 13:16:00,
2013-02-04 08:21:00,14.0,9.5,30.09,SSE,158,0.0,0.0,82,0.00,,OVC017,16.76,VWS V14.01,2013-02-04 13:21:00,
2013-02-04 08:26:00,14.5,9.8,30.09,SSE,158,2.0,2.0,81,0.00,,OVC017,16.76,VWS V14.01,2013-02-04 13:26:00,
2013-02-04 08:31:00,15.3,10.5,30.09,SE,135,0.0,0.0,81,0.00,,OVC015,16.76,VWS V14.01,2013-02-04 13:31:00,
2013-02-04 08:36:00,15.8,11.0,30.09,SE,135,0.0,1.6,81,0.00,,OVC015,16.76,VWS V14.01,2013-02-04 13:36:00,
2013-02-04 08:41:00,16.3,11.5,30.09,SE,135,0.0,0.0,81,0.00,,OVC015,16.76,VWS V14.01,2013-02-04 13:41:00,
2013-02-04 08:46:00,16.5,11.2,30.09,East,90,2.0,2.0,79,0.00,,OVC015,16.76,VWS V14.01,2013-02-04 13:46:00,
2013-02-04 08:51:00,17.4,12.3,30.12,NW,315,2.0,2.0,80,0.00,,OVC015,16.76,VWS V14.01,2013-02-04 13:51:00,
2013-02-04 08:58:00,18.9,13.7,30.12,NE,45,1.6,2.5,80,0.00,,OVC015,16.76,VWS V14.01,2013-02-04 13:58:00,
2013-02-04 09:10:00,20.3,14.8,30.09,SE,135,1.6,2.0,79,0.00,,SCT013,16.76,VWS V14.01,2013-02-04 14:10:00,
2013-02-04 09:15:00,21.4,15.6,30.09,South,180,0.0,0.0,78,0.00,,SCT013,16.76,VWS V14.01,2013-02-04 14:15:00,
2013-02-04 09:20:00,22.8,16.7,30.09,East,90,0.0,0.0,77,0.00,,SCT013,16.76,VWS V14.01,2013-02-04 14:20:00,
2013-02-04 09:25:00,25.2,19.0,30.09,West,270,0.0,0.0,77,0.00,,SCT013,16.76,VWS V14.01,2013-02-04 14:25:00,
2013-02-04 09:30:00,25.2,17.1,30.09,East,90,2.7,4.0,71,0.00,,SCT013,16.76,VWS V14.01,2013-02-04 14:30:00,
2013-02-04 09:35:00,25.9,17.1,30.12,ESE,112,2.0,3.1,69,0.00,,SCT013,16.76,VWS V14.01,2013-02-04 14:35:00,
2013-02-04 09:40:00,27.1,17.6,30.12,ENE,68,3.6,3.6,67,0.00,,SCT013,16.76,VWS V14.01,2013-02-04 14:40:00,
2013-02-04 09:45:00,27.7,16.7,30.12,East,90,3.8,3.8,63,0.00,,SCT013,16.76,VWS V14.01,2013-02-04 14:45:00,
2013-02-04 09:50:00,28.2,16.5,30.09,ESE,112,2.5,3.6,61,0.00,,SCT013,16.76,VWS V14.01,2013-02-04 14:50:00,
2013-02-04 09:55:00,28.4,15.9,30.09,East,90,2.0,3.4,59,0.00,,SCT013,16.76,VWS V14.01,2013-02-04 14:55:00,
2013-02-04 10:00:00,29.7,17.1,30.09,ESE,112,2.9,2.9,59,0.00,,FEW013,16.76,VWS V14.01,2013-02-04 15:00:00,
2013-02-04 10:05:00,32.9,18.9,30.09,East,90,3.1,3.4,56,0.00,,FEW013,16.76,VWS V14.01,2013-02-04 15:05:00,
2013-02-04 10:10:00,31.5,16.3,30.09,East,90,3.4,5.6,53,0.00,,FEW013,16.76,VWS V14.01,2013-02-04 15:10:00,
2013-02-04 10:15:00,31.1,16.0,30.09,East,90,4.0,4.0,53,0.00,,FEW013,16.76,VWS V14.01,2013-02-04 15:15:00,
2013-02-04 10:20:00,31.6,16.0,30.06,ESE,112,4.0,6.5,52,0.00,,FEW013,16.76,VWS V14.01,2013-02-04 15:20:00,
2013-02-04 10:25:00,31.8,16.6,30.06,ESE,112,4.0,4.0,53,0.00,,FEW013,16.76,VWS V14.01,2013-02-04 15:25:00,
2013-02-04 10:30:00,31.5,16.3,30.06,SE,135,2.5,3.4,53,0.00,,FEW013,16.76,VWS V14.01,2013-02-04 15:30:00,
2013-02-04 10:35:00,30.9,15.8,30.06,SSE,158,2.7,3.8,53,0.00,,FEW013,16.76,VWS V14.01,2013-02-04 15:35:00,
2013-02-04 10:40:00,31.5,16.3,30.06,NE,45,2.7,4.0,53,0.00,,FEW013,16.76,VWS V14.01,2013-02-04 15:40:00,
2013-02-04 10:45:00,31.1,16.0,30.06,East,90,4.0,4.0,53,0.00,,FEW013,16.76,VWS V14.01,2013-02-04 15:45:00,
2013-02-04 10:50:00,31.3,16.1,30.06,East,90,2.5,3.1,53,0.00,,FEW013,16.76,VWS V14.01,2013-02-04 15:50:00,
2013-02-04 10:55:00,32.9,18.1,30.06,SE,135,2.2,2.7,54,0.00,,FEW013,16.76,VWS V14.01,2013-02-04 15:55:00,
2013-02-04 11:00:00,33.1,17.4,30.06,ENE,68,3.1,3.4,52,0.00,,FEW013,16.76,VWS V14.01,2013-02-04 16:00:00,
2013-02-04 11:05:00,34.3,19.0,30.03,NW,315,1.1,2.0,53,0.00,,SCT013,16.76,VWS V14.01,2013-02-04 16:05:00,
2013-02-04 11:10:00,34.0,17.8,30.03,SSW,202,1.1,5.4,51,0.00,,SCT013,16.76,VWS V14.01,2013-02-04 16:10:00,
2013-02-04 11:15:00,33.4,17.3,30.03,ENE,68,2.5,4.3,51,0.00,,SCT013,16.76,VWS V14.01,2013-02-04 16:15:00,
2013-02-04 11:20:00,33.6,17.0,30.06,SE,135,2.7,3.8,50,0.00,,SCT013,16.76,VWS V14.01,2013-02-04 16:20:00,
2013-02-04 11:25:00,35.2,18.9,30.06,East,90,2.9,2.9,51,0.00,,SCT013,16.76,VWS V14.01,2013-02-04 16:25:00,
2013-02-04 11:30:00,34.7,18.0,30.06,East,90,6.3,6.3,50,0.00,,SCT013,16.76,VWS V14.01,2013-02-04 16:30:00,
2013-02-04 11:35:00,34.5,16.9,30.03,ESE,112,3.8,4.0,48,0.00,,SCT013,16.76,VWS V14.01,2013-02-04 16:35:00,
2013-02-04 11:40:00,35.6,17.9,30.03,ESE,112,3.6,4.3,48,0.00,,SCT013,16.76,VWS V14.01,2013-02-04 16:40:00,
2013-02-04 11:45:00,35.8,17.0,30.03,ESE,112,2.5,6.5,46,0.00,,SCT013,16.76,VWS V14.01,2013-02-04 16:45:00,
2013-02-04 11:50:00,37.0,18.2,30.03,East,90,5.8,6.3,46,0.00,,SCT013,16.76,VWS V14.01,2013-02-04 16:50:00,
2013-02-04 11:55:00,37.9,18.5,30.03,ESE,112,3.1,5.6,45,0.00,,SCT013,16.76,VWS V14.01,2013-02-04 16:55:00,
2013-02-04 12:00:00,39.2,19.1,30.03,ENE,68,2.0,3.8,44,0.00,,CLR,16.76,VWS V14.01,2013-02-04 17:00:00,
2013-02-04 12:05:00,39.4,18.8,30.03,ENE,68,6.3,6.3,43,0.00,,CLR,16.76,VWS V14.01,2013-02-04 17:05:00,
2013-02-04 12:10:00,37.0,16.6,30.03,NW,315,3.6,4.7,43,0.00,,CLR,16.76,VWS V14.01,2013-02-04 17:10:00,
2013-02-04 12:15:00,36.9,16.5,30.03,ESE,112,5.8,5.8,43,0.00,,CLR,16.76,VWS V14.01,2013-02-04 17:15:00,
2013-02-04 12:20:00,36.5,16.1,30.03,SSE,158,3.8,5.6,43,0.00,,CLR,16.76,VWS V14.01,2013-02-04 17:20:00,
2013-02-04 12:25:00,36.1,16.4,30.03,East,90,4.9,5.6,44,0.00,,CLR,16.76,VWS V14.01,2013-02-04 17:25:00,
2013-02-04 12:30:00,37.6,17.7,30.03,NNE,22,4.5,5.4,44,0.00,,CLR,16.76,VWS V14.01,2013-02-04 17:30:00,
2013-02-04 12:35:00,37.6,16.6,30.00,SE,135,2.7,6.0,42,0.00,,CLR,16.76,VWS V14.01,2013-02-04 17:35:00,
2013-02-04 12:40:00,37.8,17.3,30.00,South,180,2.5,4.0,43,0.00,,CLR,16.76,VWS V14.01,2013-02-04 17:40:00,
2013-02-04 12:45:00,38.3,17.8,30.00,NE,45,3.4,4.0,43,0.00,,CLR,16.76,VWS V14.01,2013-02-04 17:45:00,
2013-02-04 12:50:00,40.3,19.0,30.00,ESE,112,2.0,2.9,42,0.00,,CLR,16.76,VWS V14.01,2013-02-04 17:50:00,
2013-02-04 12:55:00,41.4,19.5,30.00,East,90,2.0,2.9,41,0.00,,CLR,16.76,VWS V14.01,2013-02-04 17:55:00,
2013-02-04 13:00:00,41.7,19.2,30.00,ENE,68,3.6,4.3,40,0.00,,BKN080,16.76,VWS V14.01,2013-02-04 18:00:00,
2013-02-04 13:05:00,43.3,20.6,30.00,South,180,1.6,2.0,40,0.00,,BKN080,16.76,VWS V14.01,2013-02-04 18:05:00,
2013-02-04 13:10:00,45.7,22.2,30.00,South,180,1.1,2.2,39,0.00,,BKN080,16.76,VWS V14.01,2013-02-04 18:10:00,
2013-02-04 13:15:00,44.2,20.3,30.00,ESE,112,3.6,3.6,38,0.00,,BKN080,16.76,VWS V14.01,2013-02-04 18:15:00,
2013-02-04 13:20:00,45.5,21.4,29.97,ESE,112,2.7,2.9,38,0.00,,BKN080,16.76,VWS V14.01,2013-02-04 18:20:00,
2013-02-04 13:25:00,46.4,21.6,29.97,ENE,68,6.3,6.3,37,0.00,,BKN080,16.76,VWS V14.01,2013-02-04 18:25:00,
2013-02-04 13:30:00,47.1,21.6,29.97,East,90,2.5,6.5,36,0.00,,BKN080,16.76,VWS V14.01,2013-02-04 18:30:00,
2013-02-04 13:35:00,45.9,21.1,29.97,NNE,22,5.6,6.0,37,0.00,,BKN080,16.76,VWS V14.01,2013-02-04 18:35:00,
2013-02-04 13:40:00,46.4,21.6,29.97,East,90,3.1,7.2,37,0.00,,BKN080,16.76,VWS V14.01,2013-02-04 18:40:00,
2013-02-04 13:45:00,46.4,21.6,29.97,East,90,4.0,4.0,37,0.00,,BKN080,16.76,VWS V14.01,2013-02-04 18:45:00,
2013-02-04 13:50:00,45.9,21.1,29.97,SSW,202,3.1,4.3,37,0.00,,BKN080,16.76,VWS V14.01,2013-02-04 18:50:00,
2013-02-04 13:55:00,47.1,20.9,29.97,SE,135,6.5,6.5,35,0.00,,BKN080,16.76,VWS V14.01,2013-02-04 18:55:00,
2013-02-04 14:00:00,47.8,21.5,29.97,ENE,68,10.5,10.5,35,0.00,,CLR,16.76,VWS V14.01,2013-02-04 19:00:00,
2013-02-04 14:05:00,45.0,19.6,29.97,East,90,3.1,4.3,36,0.00,,CLR,16.76,VWS V14.01,2013-02-04 19:05:00,
2013-02-04 14:10:00,46.4,21.6,29.97,ENE,68,6.3,6.3,37,0.00,,CLR,16.76,VWS V14.01,2013-02-04 19:10:00,
2013-02-04 14:15:00,45.0,20.3,29.97,SSE,158,5.6,8.5,37,0.00,,CLR,16.76,VWS V14.01,2013-02-04 19:15:00,
2013-02-04 14:20:00,42.3,18.5,29.97,East,90,8.5,8.5,38,0.00,,CLR,16.76,VWS V14.01,2013-02-04 19:20:00,
2013-02-04 14:25:00,41.0,17.4,29.97,ESE,112,5.4,15.4,38,0.00,,CLR,16.76,VWS V14.01,2013-02-04 19:25:00,
2013-02-04 14:30:00,41.0,18.0,29.97,East,90,10.5,12.3,39,0.00,,CLR,16.76,VWS V14.01,2013-02-04 19:30:00,
2013-02-04 14:35:00,40.8,18.4,29.91,ESE,112,11.9,12.5,40,0.00,,CLR,16.76,VWS V14.01,2013-02-04 19:35:00,
2013-02-04 14:40:00,41.5,18.4,29.91,East,90,5.6,5.6,39,0.00,,CLR,16.76,VWS V14.01,2013-02-04 19:40:00,
2013-02-04 14:45:00,41.4,18.3,29.91,SE,135,6.3,9.8,39,0.00,,CLR,16.76,VWS V14.01,2013-02-04 19:45:00,
2013-02-04 14:50:00,42.6,20.0,29.91,East,90,5.4,5.4,40,0.00,,CLR,16.76,VWS V14.01,2013-02-04 19:50:00,
2013-02-04 14:55:00,42.8,19.6,29.91,SE,135,4.0,5.6,39,0.00,,CLR,16.76,VWS V14.01,2013-02-04 19:55:00,
2013-02-04 15:00:00,42.4,19.8,29.91,SE,135,8.7,8.7,40,0.00,,CLR,16.76,VWS V14.01,2013-02-04 20:00:00,
2013-02-04 15:05:00,41.7,19.2,29.91,SE,135,6.5,9.2,40,0.00,,FEW080,16.76,VWS V14.01,2013-02-04 20:05:00,
2013-02-04 15:10:00,41.5,19.0,29.91,SSE,158,7.4,7.4,40,0.00,,FEW080,16.76,VWS V14.01,2013-02-04 20:10:00,
2013-02-04 15:15:00,41.0,18.5,29.91,SE,135,13.0,13.0,40,0.00,,FEW080,16.76,VWS V14.01,2013-02-04 20:15:00,
2013-02-04 15:20:00,41.7,19.8,29.91,ESE,112,7.6,7.6,41,0.00,,FEW080,16.76,VWS V14.01,2013-02-04 20:20:00,
2013-02-04 15:25:00,41.5,19.6,29.91,SE,135,6.3,8.7,41,0.00,,FEW080,16.76,VWS V14.01,2013-02-04 20:25:00,
2013-02-04 15:30:00,42.1,19.5,29.91,East,90,2.9,4.9,40,0.00,,FEW080,16.76,VWS V14.01,2013-02-04 20:30:00,
2013-02-04 15:35:00,41.9,19.4,29.91,ENE,68,4.0,10.7,40,0.00,,FEW080,16.76,VWS V14.01,2013-02-04 20:35:00,
2013-02-04 15:40:00,41.9,19.9,29.91,East,90,7.2,7.2,41,0.00,,FEW080,16.76,VWS V14.01,2013-02-04 20:40:00,
2013-02-04 15:45:00,42.4,20.4,29.91,SE,135,5.8,7.4,41,0.00,,FEW080,16.76,VWS V14.01,2013-02-04 20:45:00,
2013-02-04 15:50:00,41.9,19.9,29.91,ESE,112,6.5,6.5,41,0.00,,FEW080,16.76,VWS V14.01,2013-02-04 20:50:00,
2013-02-04 15:55:00,41.5,19.6,29.91,East,90,5.4,5.4,41,0.00,,FEW080,16.76,VWS V14.01,2013-02-04 20:55:00,
2013-02-04 16:00:00,41.2,19.3,29.91,ESE,112,5.8,5.8,41,0.00,,FEW080,16.76,VWS V14.01,2013-02-04 21:00:00,
2013-02-04 16:05:00,41.4,19.5,29.91,SE,135,7.8,7.8,41,0.00,,OVC080,16.76,VWS V14.01,2013-02-04 21:05:00,
2013-02-04 16:10:00,41.4,20.0,29.91,ESE,112,3.8,5.8,42,0.00,,OVC080,16.76,VWS V14.01,2013-02-04 21:10:00,
2013-02-04 16:15:00,41.7,19.8,29.91,ENE,68,5.8,6.3,41,0.00,,OVC080,16.76,VWS V14.01,2013-02-04 21:15:00,
2013-02-04 16:20:00,41.5,19.6,29.91,SE,135,5.6,5.6,41,0.00,,OVC080,16.76,VWS V14.01,2013-02-04 21:20:00,
2013-02-04 16:25:00,41.5,19.6,29.91,SE,135,2.9,9.2,41,0.00,,OVC080,16.76,VWS V14.01,2013-02-04 21:25:00,
2013-02-04 16:30:00,41.5,19.6,29.91,SE,135,6.3,8.5,41,0.00,,OVC080,16.76,VWS V14.01,2013-02-04 21:30:00,
2013-02-04 16:35:00,41.5,20.2,29.91,SE,135,7.6,7.8,42,0.00,,OVC080,16.76,VWS V14.01,2013-02-04 21:35:00,
2013-02-04 16:40:00,41.7,19.8,29.91,SE,135,3.6,4.9,41,0.04,,OVC080,16.80,VWS V14.01,2013-02-04 21:40:00,
2013-02-04 16:45:00,41.9,20.5,29.91,East,90,4.3,4.3,42,0.04,,OVC080,16.80,VWS V14.01,2013-02-04 21:45:00,
2013-02-04 16:50:00,41.5,20.2,29.91,East,90,3.6,3.6,42,0.04,,OVC080,16.80,VWS V14.01,2013-02-04 21:50:00,
2013-02-04 16:55:00,41.2,19.9,29.91,SE,135,4.7,4.7,42,0.04,,OVC080,16.80,VWS V14.01,2013-02-04 21:55:00,
2013-02-04 17:00:00,41.0,19.7,29.91,ESE,112,6.3,6.3,42,0.04,,OVC080,16.80,VWS V14.01,2013-02-04 22:00:00,
2013-02-04 17:05:00,40.8,20.1,29.88,SE,135,3.1,5.6,43,0.04,,OVC080,16.80,VWS V14.01,2013-02-04 22:05:00,
2013-02-04 17:10:00,40.5,19.7,29.88,ENE,68,6.0,7.4,43,0.04,,OVC080,16.80,VWS V14.01,2013-02-04 22:10:00,
2013-02-04 17:15:00,40.6,20.5,29.88,ESE,112,4.3,4.3,44,0.04,,OVC080,16.80,VWS V14.01,2013-02-04 22:15:00,
2013-02-04 17:20:00,40.5,20.3,29.88,ENE,68,6.5,7.6,44,0.04,,OVC080,16.80,VWS V14.01,2013-02-04 22:20:00,
2013-02-04 17:25:00,40.5,20.3,29.88,East,90,3.8,4.0,44,0.04,,OVC080,16.80,VWS V14.01,2013-02-04 22:25:00,
2013-02-04 17:30:00,40.5,20.8,29.88,ESE,112,4.9,4.9,45,0.04,,OVC080,16.80,VWS V14.01,2013-02-04 22:30:00,
2013-02-04 17:35:00,40.3,20.6,29.91,East,90,3.1,3.1,45,0.04,,OVC080,16.80,VWS V14.01,2013-02-04 22:35:00,
2013-02-04 17:40:00,40.1,20.5,29.91,East,90,3.6,3.8,45,0.00,,OVC080,16.80,VWS V14.01,2013-02-04 22:40:00,
2013-02-04 17:45:00,39.9,20.8,29.91,East,90,3.8,3.8,46,0.00,,OVC080,16.80,VWS V14.01,2013-02-04 22:45:00,
2013-02-04 17:50:00,39.7,20.7,29.91,East,90,2.7,3.6,46,0.00,,OVC080,16.80,VWS V14.01,2013-02-04 22:50:00,
2013-02-04 17:55:00,39.7,20.7,29.91,ENE,68,4.3,5.6,46,0.00,,OVC080,16.80,VWS V14.01,2013-02-04 22:55:00,
2013-02-04 18:00:00,39.7,20.7,29.91,East,90,4.9,4.9,46,0.00,,OVC060,16.80,VWS V14.01,2013-02-04 23:00:00,
2013-02-04 18:05:00,39.6,21.0,29.88,East,90,2.5,2.7,47,0.00,,OVC060,16.80,VWS V14.01,2013-02-04 23:05:00,
2013-02-04 18:10:00,39.2,21.7,29.88,ESE,112,2.7,2.7,49,0.00,,OVC060,16.80,VWS V14.01,2013-02-04 23:10:00,
2013-02-04 18:15:00,39.4,20.3,29.88,East,90,3.8,4.0,46,0.00,,OVC060,16.80,VWS V14.01,2013-02-04 23:15:00,
2013-02-04 18:20:00,38.8,21.3,29.91,East,90,1.6,3.1,49,0.00,,OVC060,16.80,VWS V14.01,2013-02-04 23:20:00,
2013-02-04 18:25:00,38.5,21.9,29.91,East,90,3.1,3.4,51,0.00,,OVC060,16.80,VWS V14.01,2013-02-04 23:25:00,
2013-02-04 18:30:00,37.6,22.9,29.91,East,90,2.2,2.7,55,0.00,,OVC060,16.80,VWS V14.01,2013-02-04 23:30:00,
2013-02-04 18:35:00,37.0,22.4,29.91,ESE,112,2.0,2.0,55,0.00,,OVC060,16.80,VWS V14.01,2013-02-04 23:35:00,
2013-02-04 18:40:00,36.7,22.5,29.91,NNW,338,0.0,0.0,56,0.00,,OVC060,16.80,VWS V14.01,2013-02-04 23:40:00,
2013-02-04 18:45:00,36.1,22.4,29.91,NNW,338,0.0,0.0,57,0.00,,OVC060,16.80,VWS V14.01,2013-02-04 23:45:00,
2013-02-04 18:50:00,35.8,22.5,29.88,WNW,292,1.3,2.0,58,0.00,,OVC060,16.80,VWS V14.01,2013-02-04 23:50:00,
2013-02-04 18:55:00,35.4,23.7,29.88,SSE,158,1.1,1.1,62,0.00,,OVC060,16.80,VWS V14.01,2013-02-04 23:55:00,
2013-02-04 19:00:00,35.2,24.7,29.88,West,270,0.9,0.9,65,0.00,,OVC080,16.80,VWS V14.01,2013-02-05 00:00:00,
2013-02-04 19:05:00,35.2,25.4,29.91,ENE,68,2.9,3.6,67,0.00,,OVC080,16.80,VWS V14.01,2013-02-05 00:05:00,
2013-02-04 19:10:00,35.2,25.4,29.91,NE,45,0.0,0.0,67,0.00,,OVC080,16.80,VWS V14.01,2013-02-05 00:10:00,
2013-02-04 19:15:00,35.4,25.2,29.91,NNE,22,2.7,4.0,66,0.00,,OVC080,16.80,VWS V14.01,2013-02-05 00:15:00,
2013-02-04 19:20:00,35.6,25.4,29.88,ENE,68,2.5,3.1,66,0.00,,OVC080,16.80,VWS V14.01,2013-02-05 00:20:00,
2013-02-04 19:25:00,35.4,25.2,29.88,SW,225,1.1,1.6,66,0.00,,OVC080,16.80,VWS V14.01,2013-02-05 00:25:00,
2013-02-04 19:30:00,35.1,24.9,29.88,NNW,338,0.0,0.0,66,0.00,,OVC065,16.80,VWS V14.01,2013-02-05 00:30:00,
2013-02-04 19:35:00,34.9,25.0,29.91,NW,315,2.0,2.0,67,0.00,,OVC065,16.80,VWS V14.01,2013-02-05 00:35:00,
2013-02-04 19:40:00,34.7,25.9,29.91,SE,135,0.9,1.6,70,0.00,,OVC065,16.80,VWS V14.01,2013-02-05 00:40:00,
2013-02-04 19:45:00,34.9,26.8,29.91,NNE,22,3.4,3.4,72,0.00,,OVC065,16.80,VWS V14.01,2013-02-05 00:45:00,
2013-02-04 19:50:00,34.7,26.6,29.91,SE,135,0.0,0.0,72,0.00,,OVC065,16.80,VWS V14.01,2013-02-05 00:50:00,
2013-02-04 19:55:00,34.7,26.6,29.91,East,90,0.9,0.9,72,0.00,,OVC065,16.80,VWS V14.01,2013-02-05 00:55:00,
2013-02-04 20:00:00,34.7,27.3,29.91,NE,45,2.7,2.7,74,0.04,,OVC065,16.84,VWS V14.01,2013-02-05 01:00:00,
2013-02-04 20:05:00,34.7,27.6,29.91,East,90,2.2,2.2,75,0.04,,OVC065,16.84,VWS V14.01,2013-02-05 01:05:00,
2013-02-04 20:10:00,34.5,27.4,29.91,ESE,112,1.3,2.5,75,0.04,,OVC065,16.84,VWS V14.01,2013-02-05 01:10:00,
2013-02-04 20:15:00,34.9,26.8,29.91,NW,315,3.6,7.6,72,0.04,,OVC065,16.84,VWS V14.01,2013-02-05 01:15:00,
2013-02-04 20:20:00,35.6,26.8,29.91,NE,45,2.0,3.8,70,0.04,,OVC065,16.84,VWS V14.01,2013-02-05 01:20:00,
2013-02-04 20:25:00,35.6,27.1,29.91,East,90,0.0,2.2,71,0.04,,OVC065,16.84,VWS V14.01,2013-02-05 01:25:00,
2013-02-04 20:30:00,36.7,26.4,29.91,SE,135,1.1,1.3,66,0.04,,OVC065,16.84,VWS V14.01,2013-02-05 01:30:00,
2013-02-04 20:35:00,37.4,24.8,29.91,ESE,112,3.6,3.6,60,0.04,,OVC065,16.84,VWS V14.01,2013-02-05 01:35:00,
2013-02-04 20:40:00,38.1,25.1,29.91,SE,135,1.3,3.4,59,0.04,,OVC065,16.84,VWS V14.01,2013-02-05 01:40:00,
2013-02-04 20:45:00,37.9,25.7,29.91,North,0,0.0,1.3,61,0.04,,OVC065,16.84,VWS V14.01,2013-02-05 01:45:00,
2013-02-04 20:50:00,37.4,25.6,29.91,SE,135,1.6,2.5,62,0.04,,OVC065,16.84,VWS V14.01,2013-02-05 01:50:00,
2013-02-04 20:55:00,36.9,25.5,29.91,SSW,202,0.9,1.6,63,0.04,,OVC065,16.84,VWS V14.01,2013-02-05 01:55:00,
2013-02-04 21:00:00,36.5,25.5,29.91,SSW,202,1.1,1.1,64,0.00,,,16.84,VWS V14.01,2013-02-05 02:00:00,
2013-02-04 21:05:00,36.5,25.9,29.91,ENE,68,2.7,3.1,65,0.00,,,16.84,VWS V14.01,2013-02-05 02:05:00,
2013-02-04 21:10:00,36.5,26.6,29.91,NE,45,1.1,1.6,67,0.00,,,16.84,VWS V14.01,2013-02-05 02:10:00,
2013-02-04 21:15:00,36.7,26.0,29.91,SSE,158,1.1,2.5,65,0.00,,,16.84,VWS V14.01,2013-02-05 02:15:00,
2013-02-04 21:20:00,36.3,26.8,29.91,NE,45,2.9,2.9,68,0.00,,,16.84,VWS V14.01,2013-02-05 02:20:00,
2013-02-04 21:25:00,37.0,25.6,29.91,SE,135,2.7,4.3,63,0.00,,,16.84,VWS V14.01,2013-02-05 02:25:00,
2013-02-04 21:30:00,37.6,26.1,29.91,NE,45,0.0,0.0,63,0.00,,,16.84,VWS V14.01,2013-02-05 02:30:00,
2013-02-04 21:35:00,38.3,24.4,29.91,SW,225,2.9,3.6,57,0.00,,,16.84,VWS V14.01,2013-02-05 02:35:00,
2013-02-04 21:40:00,38.3,24.0,29.91,South,180,2.7,2.9,56,0.00,,,16.84,VWS V14.01,2013-02-05 02:40:00,
2013-02-04 21:45:00,38.7,24.3,29.91,East,90,3.1,3.1,56,0.00,,,16.84,VWS V14.01,2013-02-05 02:45:00,
2013-02-04 21:50:00,38.5,24.2,29.91,South,180,5.4,5.4,56,0.00,,,16.84,VWS V14.01,2013-02-05 02:50:00,
2013-02-04 21:55:00,38.7,23.5,29.91,SE,135,3.1,5.6,54,0.00,,,16.84,VWS V14.01,2013-02-05 02:55:00,
2013-02-04 22:00:00,38.3,24.4,29.91,NE,45,0.0,1.1,57,0.00,,,16.84,VWS V14.01,2013-02-05 03:00:00,
2013-02-04 22:05:00,39.2,23.1,29.91,SE,135,2.9,3.1,52,0.00,,,16.84,VWS V14.01,2013-02-05 03:05:00,
2013-02-04 22:10:00,38.5,23.3,29.91,SE,135,5.6,5.6,54,0.00,,,16.84,VWS V14.01,2013-02-05 03:10:00,
2013-02-04 22:15:00,39.9,23.3,29.91,SSW,202,3.1,6.0,51,0.00,,,16.84,VWS V14.01,2013-02-05 03:15:00,
2013-02-04 22:20:00,40.3,24.1,29.91,SE,135,7.8,7.8,52,0.00,,,16.84,VWS V14.01,2013-02-05 03:20:00,
2013-02-04 22:25:00,39.9,24.6,29.91,South,180,4.9,5.4,54,0.00,,,16.84,VWS V14.01,2013-02-05 03:25:00,
2013-02-04 22:30:00,39.7,24.9,29.91,East,90,0.0,0.9,55,0.00,,,16.84,VWS V14.01,2013-02-05 03:30:00,
2013-02-04 22:35:00,39.6,24.7,29.94,South,180,1.6,3.6,55,0.00,,,16.84,VWS V14.01,2013-02-05 03:35:00,
2013-02-04 22:40:00,39.4,24.6,29.94,South,180,2.0,2.9,55,0.00,,,16.84,VWS V14.01,2013-02-05 03:40:00,
2013-02-04 22:45:00,39.6,24.3,29.94,ESE,112,3.4,4.3,54,0.00,,,16.84,VWS V14.01,2013-02-05 03:45:00,
2013-02-04 22:50:00,39.4,24.6,29.91,NE,45,1.6,1.6,55,0.00,,,16.84,VWS V14.01,2013-02-05 03:50:00,
2013-02-04 22:55:00,38.3,24.4,29.91,WNW,292,0.0,0.0,57,0.00,,,16.84,VWS V14.01,2013-02-05 03:55:00,
2013-02-04 23:00:00,37.6,24.2,29.91,NW,315,0.0,0.0,58,0.00,,OVC048,16.84,VWS V14.01,2013-02-05 04:00:00,
2013-02-04 23:05:00,37.6,24.6,29.91,North,0,1.1,2.2,59,0.00,,OVC048,16.84,VWS V14.01,2013-02-05 04:05:00,
2013-02-04 23:10:00,37.0,24.9,29.91,South,180,0.0,0.0,61,0.00,,OVC048,16.84,VWS V14.01,2013-02-05 04:10:00,
2013-02-04 23:15:00,36.9,25.1,29.91,NW,315,2.0,2.0,62,0.00,,OVC048,16.84,VWS V14.01,2013-02-05 04:15:00,
2013-02-04 23:20:00,37.0,25.6,29.91,East,90,0.0,0.0,63,0.00,,OVC048,16.84,VWS V14.01,2013-02-05 04:20:00,
2013-02-04 23:25:00,37.8,25.5,29.91,NE,45,1.1,3.8,61,0.00,,OVC048,16.84,VWS V14.01,2013-02-05 04:25:00,
2013-02-04 23:30:00,37.9,25.7,29.91,ENE,68,3.6,3.6,61,0.04,,OVC048,16.88,VWS V14.01,2013-02-05 04:30:00,
2013-02-04 23:35:00,38.1,25.9,29.91,SE,135,5.8,10.1,61,0.04,,OVC048,16.88,VWS V14.01,2013-02-05 04:35:00,
2013-02-04 23:40:00,39.4,25.9,29.91,ESE,112,6.0,6.0,58,0.04,,OVC048,16.88,VWS V14.01,2013-02-05 04:40:00,
2013-02-04 23:45:00,39.7,26.2,29.91,ESE,112,3.4,4.9,58,0.04,,OVC048,16.88,VWS V14.01,2013-02-05 04:45:00,
2013-02-04 23:50:00,39.7,25.8,29.91,East,90,5.4,5.4,57,0.04,,OVC048,16.88,VWS V14.01,2013-02-05 04:50:00,
2013-02-04 23:55:00,39.9,25.5,29.91,East,90,2.5,4.3,56,0.04,,OVC048,16.88,VWS V14.01,2013-02-05 04:55:00,